sensor_id;sensor_type;location;lat;lon;timestamp;P1;durP1;ratioP1;P2;durP2;ratioP2
55222;SDS011;41090;48.632;12.428;2023-05-16T00:00:59;6.03;;;5.13;;
55222;SDS011;41090;48.632;12.428;2023-05-16T00:03:31;5.53;;;4.63;;
55222;SDS011;41090;48.632;12.428;2023-05-16T00:05:57;6.63;;;5.00;;
55222;SDS011;41090;48.632;12.428;2023-05-16T00:08:28;5.57;;;5.07;;
55222;SDS011;41090;48.632;12.428;2023-05-16T00:11:02;7.87;;;5.20;;
55222;SDS011;41090;48.632;12.428;2023-05-16T00:13:28;5.03;;;4.60;;
55222;SDS011;41090;48.632;12.428;2023-05-16T00:15:53;4.67;;;4.27;;
55222;SDS011;41090;48.632;12.428;2023-05-16T00:18:20;4.80;;;4.40;;
55222;SDS011;41090;48.632;12.428;2023-05-16T00:20:48;5.37;;;4.97;;
55222;SDS011;41090;48.632;12.428;2023-05-16T00:23:14;6.00;;;5.50;;
55222;SDS011;41090;48.632;12.428;2023-05-16T00:25:41;6.70;;;6.13;;
55222;SDS011;41090;48.632;12.428;2023-05-16T00:28:10;7.73;;;6.00;;
55222;SDS011;41090;48.632;12.428;2023-05-16T00:30:36;5.87;;;5.37;;
55222;SDS011;41090;48.632;12.428;2023-05-16T00:33:07;6.40;;;5.80;;
55222;SDS011;41090;48.632;12.428;2023-05-16T00:35:45;5.90;;;5.40;;
55222;SDS011;41090;48.632;12.428;2023-05-16T00:38:19;7.20;;;6.60;;
55222;SDS011;41090;48.632;12.428;2023-05-16T00:40:45;7.80;;;5.33;;
55222;SDS011;41090;48.632;12.428;2023-05-16T00:43:11;5.87;;;5.37;;
55222;SDS011;41090;48.632;12.428;2023-05-16T00:45:38;6.30;;;5.70;;
55222;SDS011;41090;48.632;12.428;2023-05-16T00:48:10;5.83;;;5.33;;
55222;SDS011;41090;48.632;12.428;2023-05-16T00:50:40;5.67;;;4.63;;
55222;SDS011;41090;48.632;12.428;2023-05-16T00:53:10;5.50;;;5.00;;
55222;SDS011;41090;48.632;12.428;2023-05-16T00:55:37;5.73;;;5.23;;
55222;SDS011;41090;48.632;12.428;2023-05-16T00:58:11;5.17;;;4.67;;
55222;SDS011;41090;48.632;12.428;2023-05-16T01:00:40;5.80;;;5.40;;
55222;SDS011;41090;48.632;12.428;2023-05-16T01:03:11;6.27;;;5.70;;
55222;SDS011;41090;48.632;12.428;2023-05-16T01:05:42;6.03;;;5.53;;
55222;SDS011;41090;48.632;12.428;2023-05-16T01:08:10;5.80;;;5.30;;
55222;SDS011;41090;48.632;12.428;2023-05-16T01:10:38;5.60;;;5.10;;
55222;SDS011;41090;48.632;12.428;2023-05-16T01:13:11;6.13;;;5.63;;
55222;SDS011;41090;48.632;12.428;2023-05-16T01:15:49;6.87;;;5.63;;
55222;SDS011;41090;48.632;12.428;2023-05-16T01:18:24;6.80;;;6.20;;
55222;SDS011;41090;48.632;12.428;2023-05-16T01:20:55;5.70;;;5.30;;
55222;SDS011;41090;48.632;12.428;2023-05-16T01:28:46;5.93;;;5.43;;
55222;SDS011;41090;48.632;12.428;2023-05-16T01:31:14;6.30;;;5.80;;
55222;SDS011;41090;48.632;12.428;2023-05-16T01:33:42;6.43;;;5.93;;
55222;SDS011;41090;48.632;12.428;2023-05-16T01:43:44;6.20;;;5.60;;
55222;SDS011;41090;48.632;12.428;2023-05-16T01:46:11;8.83;;;6.47;;
55222;SDS011;41090;48.632;12.428;2023-05-16T01:48:42;5.90;;;5.40;;
55222;SDS011;41090;48.632;12.428;2023-05-16T01:51:10;5.53;;;5.13;;
55222;SDS011;41090;48.632;12.428;2023-05-16T01:53:37;5.63;;;5.13;;
55222;SDS011;41090;48.632;12.428;2023-05-16T01:56:08;5.70;;;5.17;;
55222;SDS011;41090;48.632;12.428;2023-05-16T01:58:35;6.13;;;5.53;;
55222;SDS011;41090;48.632;12.428;2023-05-16T02:01:05;5.73;;;5.23;;
55222;SDS011;41090;48.632;12.428;2023-05-16T02:03:31;5.80;;;5.00;;
55222;SDS011;41090;48.632;12.428;2023-05-16T02:05:56;9.13;;;5.87;;
55222;SDS011;41090;48.632;12.428;2023-05-16T02:08:22;7.50;;;6.60;;
55222;SDS011;41090;48.632;12.428;2023-05-16T02:10:48;6.20;;;5.70;;
55222;SDS011;41090;48.632;12.428;2023-05-16T02:13:13;7.40;;;6.20;;
55222;SDS011;41090;48.632;12.428;2023-05-16T02:15:38;6.30;;;5.80;;
55222;SDS011;41090;48.632;12.428;2023-05-16T02:18:04;6.33;;;5.73;;
55222;SDS011;41090;48.632;12.428;2023-05-16T02:20:29;6.87;;;6.17;;
55222;SDS011;41090;48.632;12.428;2023-05-16T02:22:55;7.93;;;6.47;;
55222;SDS011;41090;48.632;12.428;2023-05-16T02:25:24;6.93;;;6.33;;
55222;SDS011;41090;48.632;12.428;2023-05-16T02:27:49;8.87;;;7.07;;
55222;SDS011;41090;48.632;12.428;2023-05-16T02:30:14;8.63;;;6.87;;
55222;SDS011;41090;48.632;12.428;2023-05-16T02:32:40;7.80;;;7.10;;
55222;SDS011;41090;48.632;12.428;2023-05-16T02:35:12;6.90;;;6.30;;
55222;SDS011;41090;48.632;12.428;2023-05-16T02:37:39;7.07;;;6.47;;
55222;SDS011;41090;48.632;12.428;2023-05-16T02:40:09;6.63;;;6.03;;
55222;SDS011;41090;48.632;12.428;2023-05-16T02:42:43;6.70;;;6.20;;
55222;SDS011;41090;48.632;12.428;2023-05-16T02:45:09;6.80;;;6.20;;
55222;SDS011;41090;48.632;12.428;2023-05-16T02:47:36;6.40;;;5.80;;
55222;SDS011;41090;48.632;12.428;2023-05-16T02:50:07;6.13;;;5.63;;
55222;SDS011;41090;48.632;12.428;2023-05-16T02:52:33;6.93;;;6.33;;
55222;SDS011;41090;48.632;12.428;2023-05-16T02:55:04;7.67;;;6.20;;
55222;SDS011;41090;48.632;12.428;2023-05-16T02:57:30;6.77;;;6.17;;
55222;SDS011;41090;48.632;12.428;2023-05-16T02:59:55;6.53;;;5.97;;
55222;SDS011;41090;48.632;12.428;2023-05-16T03:02:20;7.10;;;6.40;;
55222;SDS011;41090;48.632;12.428;2023-05-16T03:04:46;6.83;;;6.23;;
55222;SDS011;41090;48.632;12.428;2023-05-16T03:07:12;6.53;;;5.87;;
55222;SDS011;41090;48.632;12.428;2023-05-16T03:09:38;7.40;;;6.70;;
55222;SDS011;41090;48.632;12.428;2023-05-16T03:12:08;8.20;;;7.30;;
55222;SDS011;41090;48.632;12.428;2023-05-16T03:14:35;8.17;;;7.20;;
55222;SDS011;41090;48.632;12.428;2023-05-16T03:17:01;7.87;;;7.07;;
55222;SDS011;41090;48.632;12.428;2023-05-16T03:19:28;7.23;;;6.53;;
55222;SDS011;41090;48.632;12.428;2023-05-16T03:21:53;6.60;;;6.10;;
55222;SDS011;41090;48.632;12.428;2023-05-16T03:24:19;6.33;;;5.83;;
55222;SDS011;41090;48.632;12.428;2023-05-16T03:26:46;6.43;;;5.80;;
55222;SDS011;41090;48.632;12.428;2023-05-16T03:29:12;6.30;;;5.80;;
55222;SDS011;41090;48.632;12.428;2023-05-16T03:31:37;6.63;;;6.00;;
55222;SDS011;41090;48.632;12.428;2023-05-16T03:34:11;6.43;;;5.87;;
55222;SDS011;41090;48.632;12.428;2023-05-16T03:36:38;7.43;;;6.20;;
55222;SDS011;41090;48.632;12.428;2023-05-16T03:39:10;7.67;;;7.07;;
55222;SDS011;41090;48.632;12.428;2023-05-16T03:41:37;6.60;;;6.10;;
55222;SDS011;41090;48.632;12.428;2023-05-16T03:44:06;7.00;;;6.40;;
55222;SDS011;41090;48.632;12.428;2023-05-16T03:46:32;7.00;;;6.40;;
55222;SDS011;41090;48.632;12.428;2023-05-16T03:48:58;6.57;;;5.87;;
55222;SDS011;41090;48.632;12.428;2023-05-16T03:51:27;6.53;;;5.93;;
55222;SDS011;41090;48.632;12.428;2023-05-16T03:53:53;6.10;;;5.53;;
55222;SDS011;41090;48.632;12.428;2023-05-16T03:56:18;7.80;;;7.10;;
55222;SDS011;41090;48.632;12.428;2023-05-16T03:58:44;6.37;;;5.80;;
55222;SDS011;41090;48.632;12.428;2023-05-16T04:01:12;9.53;;;7.37;;
55222;SDS011;41090;48.632;12.428;2023-05-16T04:03:38;7.07;;;6.47;;
55222;SDS011;41090;48.632;12.428;2023-05-16T04:06:09;6.73;;;5.93;;
55222;SDS011;41090;48.632;12.428;2023-05-16T04:08:44;7.90;;;7.10;;
55222;SDS011;41090;48.632;12.428;2023-05-16T04:11:16;7.00;;;6.30;;
55222;SDS011;41090;48.632;12.428;2023-05-16T04:13:43;7.30;;;6.70;;
55222;SDS011;41090;48.632;12.428;2023-05-16T04:16:19;7.20;;;6.53;;
55222;SDS011;41090;48.632;12.428;2023-05-16T04:18:46;7.23;;;6.53;;
55222;SDS011;41090;48.632;12.428;2023-05-16T04:21:19;8.80;;;7.90;;
55222;SDS011;41090;48.632;12.428;2023-05-16T04:23:46;8.23;;;7.43;;
55222;SDS011;41090;48.632;12.428;2023-05-16T04:26:17;7.90;;;7.17;;
55222;SDS011;41090;48.632;12.428;2023-05-16T04:28:49;8.10;;;7.40;;
55222;SDS011;41090;48.632;12.428;2023-05-16T04:31:18;12.30;;;9.30;;
55222;SDS011;41090;48.632;12.428;2023-05-16T04:33:49;9.50;;;8.70;;
55222;SDS011;41090;48.632;12.428;2023-05-16T04:36:15;8.80;;;8.00;;
55222;SDS011;41090;48.632;12.428;2023-05-16T04:38:41;8.77;;;7.90;;
55222;SDS011;41090;48.632;12.428;2023-05-16T04:41:15;8.07;;;7.40;;
55222;SDS011;41090;48.632;12.428;2023-05-16T04:43:44;7.77;;;6.97;;
55222;SDS011;41090;48.632;12.428;2023-05-16T04:46:09;10.20;;;8.50;;
55222;SDS011;41090;48.632;12.428;2023-05-16T04:48:35;10.40;;;9.47;;
55222;SDS011;41090;48.632;12.428;2023-05-16T04:51:03;10.87;;;9.80;;
55222;SDS011;41090;48.632;12.428;2023-05-16T04:53:28;10.70;;;9.67;;
55222;SDS011;41090;48.632;12.428;2023-05-16T04:55:53;10.63;;;9.50;;
55222;SDS011;41090;48.632;12.428;2023-05-16T04:58:20;10.90;;;9.90;;
55222;SDS011;41090;48.632;12.428;2023-05-16T05:00:54;11.30;;;10.20;;
55222;SDS011;41090;48.632;12.428;2023-05-16T05:03:20;10.63;;;9.53;;
55222;SDS011;41090;48.632;12.428;2023-05-16T05:05:46;11.07;;;9.97;;
55222;SDS011;41090;48.632;12.428;2023-05-16T05:08:17;12.47;;;11.33;;
55222;SDS011;41090;48.632;12.428;2023-05-16T05:10:43;13.13;;;11.67;;
55222;SDS011;41090;48.632;12.428;2023-05-16T05:13:10;13.30;;;12.10;;
55222;SDS011;41090;48.632;12.428;2023-05-16T05:15:40;12.93;;;11.83;;
55222;SDS011;41090;48.632;12.428;2023-05-16T05:18:06;14.33;;;12.87;;
55222;SDS011;41090;48.632;12.428;2023-05-16T05:20:31;16.37;;;14.97;;
55222;SDS011;41090;48.632;12.428;2023-05-16T05:22:57;18.77;;;17.07;;
55222;SDS011;41090;48.632;12.428;2023-05-16T05:25:30;16.33;;;14.93;;
55222;SDS011;41090;48.632;12.428;2023-05-16T05:27:57;15.27;;;13.87;;
55222;SDS011;41090;48.632;12.428;2023-05-16T05:30:22;14.03;;;12.83;;
55222;SDS011;41090;48.632;12.428;2023-05-16T05:32:48;14.20;;;12.80;;
55222;SDS011;41090;48.632;12.428;2023-05-16T05:35:14;14.67;;;13.37;;
55222;SDS011;41090;48.632;12.428;2023-05-16T05:37:43;13.53;;;12.33;;
55222;SDS011;41090;48.632;12.428;2023-05-16T05:40:13;13.50;;;12.30;;
55222;SDS011;41090;48.632;12.428;2023-05-16T05:42:39;14.30;;;13.00;;
55222;SDS011;41090;48.632;12.428;2023-05-16T05:45:09;14.90;;;13.40;;
55222;SDS011;41090;48.632;12.428;2023-05-16T05:47:36;13.03;;;11.93;;
55222;SDS011;41090;48.632;12.428;2023-05-16T05:50:06;13.70;;;12.50;;
55222;SDS011;41090;48.632;12.428;2023-05-16T05:52:32;14.00;;;12.80;;
55222;SDS011;41090;48.632;12.428;2023-05-16T05:54:57;15.00;;;13.70;;
55222;SDS011;41090;48.632;12.428;2023-05-16T05:57:24;15.53;;;14.13;;
55222;SDS011;41090;48.632;12.428;2023-05-16T05:59:49;14.33;;;12.93;;
55222;SDS011;41090;48.632;12.428;2023-05-16T06:02:15;14.03;;;12.63;;
55222;SDS011;41090;48.632;12.428;2023-05-16T06:04:41;13.73;;;12.60;;
55222;SDS011;41090;48.632;12.428;2023-05-16T06:07:07;14.97;;;13.63;;
55222;SDS011;41090;48.632;12.428;2023-05-16T06:09:33;13.80;;;12.60;;
55222;SDS011;41090;48.632;12.428;2023-05-16T06:12:02;13.83;;;12.43;;
55222;SDS011;41090;48.632;12.428;2023-05-16T06:14:28;14.00;;;12.80;;
55222;SDS011;41090;48.632;12.428;2023-05-16T06:16:53;15.27;;;13.67;;
55222;SDS011;41090;48.632;12.428;2023-05-16T06:19:19;13.97;;;12.73;;
55222;SDS011;41090;48.632;12.428;2023-05-16T06:21:49;16.37;;;14.87;;
55222;SDS011;41090;48.632;12.428;2023-05-16T06:24:14;15.70;;;14.30;;
55222;SDS011;41090;48.632;12.428;2023-05-16T06:26:45;15.33;;;14.03;;
55222;SDS011;41090;48.632;12.428;2023-05-16T06:29:15;15.27;;;13.87;;
55222;SDS011;41090;48.632;12.428;2023-05-16T06:31:44;13.97;;;12.77;;
55222;SDS011;41090;48.632;12.428;2023-05-16T06:34:15;14.77;;;13.37;;
55222;SDS011;41090;48.632;12.428;2023-05-16T06:36:41;14.93;;;13.63;;
55222;SDS011;41090;48.632;12.428;2023-05-16T06:39:10;14.00;;;12.70;;
55222;SDS011;41090;48.632;12.428;2023-05-16T06:41:37;15.13;;;13.83;;
55222;SDS011;41090;48.632;12.428;2023-05-16T06:44:12;14.10;;;12.90;;
55222;SDS011;41090;48.632;12.428;2023-05-16T06:46:38;14.03;;;12.83;;
55222;SDS011;41090;48.632;12.428;2023-05-16T06:49:13;13.77;;;12.60;;
55222;SDS011;41090;48.632;12.428;2023-05-16T06:51:53;14.03;;;12.83;;
55222;SDS011;41090;48.632;12.428;2023-05-16T06:54:18;13.63;;;12.43;;
55222;SDS011;41090;48.632;12.428;2023-05-16T06:56:44;13.97;;;12.67;;
55222;SDS011;41090;48.632;12.428;2023-05-16T06:59:10;14.20;;;12.90;;
55222;SDS011;41090;48.632;12.428;2023-05-16T07:01:35;14.13;;;12.93;;
55222;SDS011;41090;48.632;12.428;2023-05-16T07:04:11;15.07;;;13.77;;
55222;SDS011;41090;48.632;12.428;2023-05-16T07:06:39;13.97;;;12.77;;
55222;SDS011;41090;48.632;12.428;2023-05-16T07:09:13;14.67;;;13.07;;
55222;SDS011;41090;48.632;12.428;2023-05-16T07:11:41;13.77;;;12.57;;
55222;SDS011;41090;48.632;12.428;2023-05-16T07:14:11;14.10;;;12.83;;
55222;SDS011;41090;48.632;12.428;2023-05-16T07:16:38;11.53;;;10.43;;
55222;SDS011;41090;48.632;12.428;2023-05-16T07:19:09;11.90;;;10.90;;
55222;SDS011;41090;48.632;12.428;2023-05-16T07:21:36;12.20;;;11.20;;
55222;SDS011;41090;48.632;12.428;2023-05-16T07:24:16;11.37;;;10.47;;
55222;SDS011;41090;48.632;12.428;2023-05-16T07:26:43;12.57;;;11.37;;
55222;SDS011;41090;48.632;12.428;2023-05-16T07:29:18;11.37;;;10.47;;
55222;SDS011;41090;48.632;12.428;2023-05-16T07:31:44;12.60;;;11.50;;
55222;SDS011;41090;48.632;12.428;2023-05-16T07:34:09;11.13;;;10.23;;
55222;SDS011;41090;48.632;12.428;2023-05-16T07:36:37;12.50;;;11.50;;
55222;SDS011;41090;48.632;12.428;2023-05-16T07:41:47;12.13;;;11.13;;
55222;SDS011;41090;48.632;12.428;2023-05-16T07:44:18;12.20;;;11.10;;
55222;SDS011;41090;48.632;12.428;2023-05-16T07:46:43;11.87;;;10.77;;
55222;SDS011;41090;48.632;12.428;2023-05-16T07:49:15;11.53;;;10.53;;
55222;SDS011;41090;48.632;12.428;2023-05-16T07:51:44;11.17;;;10.27;;
55222;SDS011;41090;48.632;12.428;2023-05-16T07:54:15;11.53;;;10.43;;
55222;SDS011;41090;48.632;12.428;2023-05-16T07:56:51;11.83;;;10.83;;
55222;SDS011;41090;48.632;12.428;2023-05-16T07:59:20;11.77;;;10.83;;
55222;SDS011;41090;48.632;12.428;2023-05-16T08:01:48;12.43;;;11.37;;
55222;SDS011;41090;48.632;12.428;2023-05-16T08:04:17;11.70;;;10.60;;
55222;SDS011;41090;48.632;12.428;2023-05-16T08:06:46;12.47;;;11.37;;
55222;SDS011;41090;48.632;12.428;2023-05-16T08:09:16;13.33;;;11.90;;
55222;SDS011;41090;48.632;12.428;2023-05-16T08:11:42;12.63;;;11.57;;
55222;SDS011;41090;48.632;12.428;2023-05-16T08:14:15;13.40;;;12.30;;
55222;SDS011;41090;48.632;12.428;2023-05-16T08:16:41;11.90;;;10.90;;
55222;SDS011;41090;48.632;12.428;2023-05-16T08:19:06;13.80;;;12.60;;
55222;SDS011;41090;48.632;12.428;2023-05-16T08:21:32;12.57;;;11.50;;
55222;SDS011;41090;48.632;12.428;2023-05-16T08:23:58;13.10;;;12.00;;
55222;SDS011;41090;48.632;12.428;2023-05-16T08:26:24;13.13;;;11.97;;
55222;SDS011;41090;48.632;12.428;2023-05-16T08:28:54;12.27;;;11.27;;
55222;SDS011;41090;48.632;12.428;2023-05-16T08:31:23;12.43;;;11.33;;
55222;SDS011;41090;48.632;12.428;2023-05-16T08:33:48;12.80;;;11.60;;
55222;SDS011;41090;48.632;12.428;2023-05-16T08:36:15;10.90;;;9.93;;
55222;SDS011;41090;48.632;12.428;2023-05-16T08:38:44;12.00;;;10.77;;
55222;SDS011;41090;48.632;12.428;2023-05-16T08:41:11;11.23;;;10.13;;
55222;SDS011;41090;48.632;12.428;2023-05-16T08:43:38;12.37;;;11.37;;
55222;SDS011;41090;48.632;12.428;2023-05-16T08:46:05;12.03;;;11.03;;
55222;SDS011;41090;48.632;12.428;2023-05-16T08:48:33;11.70;;;10.70;;
55222;SDS011;41090;48.632;12.428;2023-05-16T08:51:04;12.30;;;11.20;;
55222;SDS011;41090;48.632;12.428;2023-05-16T08:53:31;11.90;;;10.80;;
55222;SDS011;41090;48.632;12.428;2023-05-16T08:56:03;13.90;;;12.67;;
55222;SDS011;41090;48.632;12.428;2023-05-16T08:58:28;13.27;;;12.07;;
55222;SDS011;41090;48.632;12.428;2023-05-16T09:00:55;13.07;;;11.77;;
55222;SDS011;41090;48.632;12.428;2023-05-16T09:03:20;13.00;;;11.90;;
55222;SDS011;41090;48.632;12.428;2023-05-16T09:05:48;12.70;;;11.27;;
55222;SDS011;41090;48.632;12.428;2023-05-16T09:08:15;13.20;;;11.90;;
55222;SDS011;41090;48.632;12.428;2023-05-16T09:10:41;14.97;;;13.37;;
55222;SDS011;41090;48.632;12.428;2023-05-16T09:13:07;12.67;;;11.67;;
55222;SDS011;41090;48.632;12.428;2023-05-16T09:15:32;13.00;;;11.90;;
55222;SDS011;41090;48.632;12.428;2023-05-16T09:17:59;12.10;;;11.00;;
55222;SDS011;41090;48.632;12.428;2023-05-16T09:20:25;10.93;;;10.07;;
55222;SDS011;41090;48.632;12.428;2023-05-16T09:25:16;11.67;;;10.67;;
55222;SDS011;41090;48.632;12.428;2023-05-16T09:27:47;10.57;;;9.57;;
55222;SDS011;41090;48.632;12.428;2023-05-16T09:30:15;9.83;;;9.00;;
55222;SDS011;41090;48.632;12.428;2023-05-16T09:32:45;12.03;;;10.93;;
55222;SDS011;41090;48.632;12.428;2023-05-16T09:35:16;11.50;;;10.60;;
55222;SDS011;41090;48.632;12.428;2023-05-16T09:37:47;10.35;;;9.30;;
55222;SDS011;41090;48.632;12.428;2023-05-16T09:40:21;10.02;;;9.23;;
55222;SDS011;41090;48.632;12.428;2023-05-16T09:42:46;10.65;;;9.75;;
55222;SDS011;41090;48.632;12.428;2023-05-16T09:45:17;10.88;;;9.93;;
55222;SDS011;41090;48.632;12.428;2023-05-16T09:47:43;9.07;;;8.27;;
55222;SDS011;41090;48.632;12.428;2023-05-16T09:50:14;9.38;;;8.68;;
55222;SDS011;41090;48.632;12.428;2023-05-16T09:52:41;8.50;;;7.80;;
55222;SDS011;41090;48.632;12.428;2023-05-16T09:55:15;9.00;;;8.10;;
55222;SDS011;41090;48.632;12.428;2023-05-16T09:57:42;7.18;;;6.57;;
55222;SDS011;41090;48.632;12.428;2023-05-16T10:00:14;6.60;;;6.10;;
55222;SDS011;41090;48.632;12.428;2023-05-16T10:02:40;6.97;;;6.47;;
55222;SDS011;41090;48.632;12.428;2023-05-16T10:05:06;6.95;;;6.45;;
55222;SDS011;41090;48.632;12.428;2023-05-16T10:07:31;6.97;;;6.38;;
55222;SDS011;41090;48.632;12.428;2023-05-16T10:10:03;6.30;;;5.70;;
55222;SDS011;41090;48.632;12.428;2023-05-16T10:12:29;7.60;;;6.93;;
55222;SDS011;41090;48.632;12.428;2023-05-16T10:14:59;6.57;;;6.07;;
55222;SDS011;41090;48.632;12.428;2023-05-16T10:17:25;7.03;;;6.43;;
55222;SDS011;41090;48.632;12.428;2023-05-16T10:19:52;6.38;;;5.80;;
55222;SDS011;41090;48.632;12.428;2023-05-16T10:22:18;6.60;;;6.10;;
55222;SDS011;41090;48.632;12.428;2023-05-16T10:24:53;6.72;;;5.50;;
55222;SDS011;41090;48.632;12.428;2023-05-16T10:27:21;6.35;;;5.85;;
55222;SDS011;41090;48.632;12.428;2023-05-16T10:29:47;5.68;;;5.28;;
55222;SDS011;41090;48.632;12.428;2023-05-16T10:32:13;6.07;;;5.47;;
55222;SDS011;41090;48.632;12.428;2023-05-16T10:34:40;9.95;;;8.90;;
55222;SDS011;41090;48.632;12.428;2023-05-16T10:37:12;7.20;;;6.47;;
55222;SDS011;41090;48.632;12.428;2023-05-16T10:39:38;6.20;;;5.57;;
55222;SDS011;41090;48.632;12.428;2023-05-16T10:42:04;7.03;;;6.32;;
55222;SDS011;41090;48.632;12.428;2023-05-16T10:44:31;7.32;;;6.72;;
55222;SDS011;41090;48.632;12.428;2023-05-16T10:46:59;6.72;;;6.13;;
55222;SDS011;41090;48.632;12.428;2023-05-16T10:49:25;6.93;;;6.05;;
55222;SDS011;41090;48.632;12.428;2023-05-16T10:52:05;6.00;;;5.50;;
55222;SDS011;41090;48.632;12.428;2023-05-16T10:54:36;6.47;;;5.78;;
55222;SDS011;41090;48.632;12.428;2023-05-16T10:57:05;6.88;;;6.28;;
55222;SDS011;41090;48.632;12.428;2023-05-16T10:59:38;6.30;;;5.60;;
55222;SDS011;41090;48.632;12.428;2023-05-16T11:04:48;6.85;;;6.25;;
55222;SDS011;41090;48.632;12.428;2023-05-16T11:07:16;7.50;;;6.80;;
55222;SDS011;41090;48.632;12.428;2023-05-16T11:12:41;7.20;;;6.55;;
55222;SDS011;41090;48.632;12.428;2023-05-16T11:15:19;7.10;;;6.50;;
55222;SDS011;41090;48.632;12.428;2023-05-16T11:17:47;7.68;;;6.97;;
55222;SDS011;41090;48.632;12.428;2023-05-16T11:20:29;7.53;;;6.82;;
55222;SDS011;41090;48.632;12.428;2023-05-16T11:25:41;8.60;;;7.70;;
55222;SDS011;41090;48.632;12.428;2023-05-16T11:28:07;7.72;;;7.07;;
55222;SDS011;41090;48.632;12.428;2023-05-16T11:30:32;7.28;;;6.53;;
55222;SDS011;41090;48.632;12.428;2023-05-16T11:32:58;8.25;;;7.60;;
55222;SDS011;41090;48.632;12.428;2023-05-16T11:35:23;7.80;;;7.05;;
55222;SDS011;41090;48.632;12.428;2023-05-16T11:37:48;7.50;;;6.90;;
55222;SDS011;41090;48.632;12.428;2023-05-16T11:40:15;8.43;;;7.73;;
55222;SDS011;41090;48.632;12.428;2023-05-16T11:42:44;8.27;;;7.57;;
55222;SDS011;41090;48.632;12.428;2023-05-16T11:45:13;8.70;;;7.90;;
55222;SDS011;41090;48.632;12.428;2023-05-16T11:47:39;7.43;;;6.73;;
55222;SDS011;41090;48.632;12.428;2023-05-16T11:50:12;8.27;;;7.57;;
55222;SDS011;41090;48.632;12.428;2023-05-16T11:52:38;7.20;;;6.60;;
55222;SDS011;41090;48.632;12.428;2023-05-16T11:55:05;8.33;;;7.63;;
55222;SDS011;41090;48.632;12.428;2023-05-16T11:57:32;8.03;;;7.33;;
55222;SDS011;41090;48.632;12.428;2023-05-16T12:00:13;7.73;;;7.13;;
55222;SDS011;41090;48.632;12.428;2023-05-16T12:02:39;7.93;;;7.17;;
55222;SDS011;41090;48.632;12.428;2023-05-16T12:05:13;8.00;;;7.20;;
55222;SDS011;41090;48.632;12.428;2023-05-16T12:07:40;7.77;;;7.07;;
55222;SDS011;41090;48.632;12.428;2023-05-16T12:10:09;7.57;;;6.87;;
55222;SDS011;41090;48.632;12.428;2023-05-16T12:12:35;7.00;;;6.40;;
55222;SDS011;41090;48.632;12.428;2023-05-16T12:15:09;7.67;;;6.53;;
55222;SDS011;41090;48.632;12.428;2023-05-16T12:17:36;7.00;;;6.30;;
55222;SDS011;41090;48.632;12.428;2023-05-16T12:20:09;5.67;;;4.83;;
55222;SDS011;41090;48.632;12.428;2023-05-16T12:22:42;4.90;;;4.30;;
55222;SDS011;41090;48.632;12.428;2023-05-16T12:27:48;4.43;;;4.03;;
55222;SDS011;41090;48.632;12.428;2023-05-16T12:30:15;5.40;;;4.50;;
55222;SDS011;41090;48.632;12.428;2023-05-16T12:32:42;6.63;;;4.60;;
55222;SDS011;41090;48.632;12.428;2023-05-16T12:35:12;7.13;;;4.97;;
55222;SDS011;41090;48.632;12.428;2023-05-16T12:37:41;7.23;;;4.67;;
55222;SDS011;41090;48.632;12.428;2023-05-16T12:40:08;8.63;;;5.10;;
55222;SDS011;41090;48.632;12.428;2023-05-16T12:42:42;4.53;;;4.10;;
55222;SDS011;41090;48.632;12.428;2023-05-16T12:45:15;5.87;;;4.30;;
55222;SDS011;41090;48.632;12.428;2023-05-16T12:47:44;4.73;;;4.33;;
55222;SDS011;41090;48.632;12.428;2023-05-16T12:50:13;5.23;;;4.73;;
55222;SDS011;41090;48.632;12.428;2023-05-16T12:52:48;5.93;;;4.93;;
55222;SDS011;41090;48.632;12.428;2023-05-16T12:55:15;4.63;;;4.23;;
55222;SDS011;41090;48.632;12.428;2023-05-16T12:57:42;4.90;;;4.50;;
55222;SDS011;41090;48.632;12.428;2023-05-16T13:00:14;5.97;;;4.97;;
55222;SDS011;41090;48.632;12.428;2023-05-16T13:02:41;4.97;;;4.50;;
55222;SDS011;41090;48.632;12.428;2023-05-16T13:05:15;5.87;;;4.70;;
55222;SDS011;41090;48.632;12.428;2023-05-16T13:07:42;5.30;;;4.83;;
55222;SDS011;41090;48.632;12.428;2023-05-16T13:10:12;5.73;;;4.67;;
55222;SDS011;41090;48.632;12.428;2023-05-16T13:12:39;5.33;;;4.83;;
55222;SDS011;41090;48.632;12.428;2023-05-16T13:15:09;5.53;;;5.03;;
55222;SDS011;41090;48.632;12.428;2023-05-16T13:17:37;5.00;;;4.47;;
55222;SDS011;41090;48.632;12.428;2023-05-16T13:20:07;7.03;;;5.37;;
55222;SDS011;41090;48.632;12.428;2023-05-16T13:22:37;4.43;;;4.03;;
55222;SDS011;41090;48.632;12.428;2023-05-16T13:25:11;5.00;;;4.50;;
55222;SDS011;41090;48.632;12.428;2023-05-16T13:27:37;4.93;;;4.43;;
55222;SDS011;41090;48.632;12.428;2023-05-16T13:30:05;4.47;;;4.07;;
55222;SDS011;41090;48.632;12.428;2023-05-16T13:32:31;4.10;;;3.70;;
55222;SDS011;41090;48.632;12.428;2023-05-16T13:34:56;4.20;;;3.83;;
55222;SDS011;41090;48.632;12.428;2023-05-16T13:37:21;5.00;;;4.10;;
55222;SDS011;41090;48.632;12.428;2023-05-16T13:39:50;4.97;;;4.47;;
55222;SDS011;41090;48.632;12.428;2023-05-16T13:42:16;5.20;;;4.80;;
55222;SDS011;41090;48.632;12.428;2023-05-16T13:44:41;5.27;;;4.83;;
55222;SDS011;41090;48.632;12.428;2023-05-16T13:47:13;5.10;;;4.70;;
55222;SDS011;41090;48.632;12.428;2023-05-16T13:49:42;4.80;;;4.40;;
55222;SDS011;41090;48.632;12.428;2023-05-16T13:52:07;5.43;;;4.90;;
55222;SDS011;41090;48.632;12.428;2023-05-16T13:54:32;5.50;;;5.00;;
55222;SDS011;41090;48.632;12.428;2023-05-16T13:56:58;5.67;;;5.13;;
55222;SDS011;41090;48.632;12.428;2023-05-16T13:59:23;5.60;;;5.07;;
55222;SDS011;41090;48.632;12.428;2023-05-16T14:01:48;6.20;;;5.70;;
55222;SDS011;41090;48.632;12.428;2023-05-16T14:04:14;6.83;;;5.50;;
55222;SDS011;41090;48.632;12.428;2023-05-16T14:06:40;6.67;;;6.03;;
55222;SDS011;41090;48.632;12.428;2023-05-16T14:09:14;6.67;;;5.83;;
55222;SDS011;41090;48.632;12.428;2023-05-16T14:11:44;6.30;;;5.70;;
55222;SDS011;41090;48.632;12.428;2023-05-16T14:14:11;6.80;;;6.20;;
55222;SDS011;41090;48.632;12.428;2023-05-16T14:16:40;6.60;;;6.00;;
55222;SDS011;41090;48.632;12.428;2023-05-16T14:19:10;6.43;;;5.90;;
55222;SDS011;41090;48.632;12.428;2023-05-16T14:21:40;6.43;;;5.93;;
55222;SDS011;41090;48.632;12.428;2023-05-16T14:24:09;7.07;;;6.47;;
55222;SDS011;41090;48.632;12.428;2023-05-16T14:26:36;7.03;;;6.40;;
55222;SDS011;41090;48.632;12.428;2023-05-16T14:29:05;7.00;;;6.40;;
55222;SDS011;41090;48.632;12.428;2023-05-16T14:31:31;6.87;;;6.37;;
55222;SDS011;41090;48.632;12.428;2023-05-16T14:33:57;7.13;;;6.43;;
55222;SDS011;41090;48.632;12.428;2023-05-16T14:36:23;7.07;;;6.47;;
55222;SDS011;41090;48.632;12.428;2023-05-16T14:38:49;7.80;;;7.10;;
55222;SDS011;41090;48.632;12.428;2023-05-16T14:41:15;8.10;;;7.30;;
55222;SDS011;41090;48.632;12.428;2023-05-16T14:43:43;8.30;;;7.60;;
55222;SDS011;41090;48.632;12.428;2023-05-16T14:46:08;7.90;;;7.07;;
55222;SDS011;41090;48.632;12.428;2023-05-16T14:48:34;8.03;;;7.23;;
55222;SDS011;41090;48.632;12.428;2023-05-16T14:50:59;7.87;;;7.17;;
55222;SDS011;41090;48.632;12.428;2023-05-16T14:53:25;8.87;;;8.07;;
55222;SDS011;41090;48.632;12.428;2023-05-16T14:55:50;8.80;;;7.77;;
55222;SDS011;41090;48.632;12.428;2023-05-16T14:58:15;7.73;;;7.03;;
55222;SDS011;41090;48.632;12.428;2023-05-16T15:00:41;8.20;;;7.40;;